createdAt,value
2022-09-15T00:00:44.658Z,100
2022-09-15T00:05:46.545Z,100
2022-09-15T00:10:48.636Z,100
2022-09-15T00:15:50.498Z,100
2022-09-15T00:20:52.309Z,100
2022-09-15T00:25:54.435Z,100
2022-09-15T00:30:55.851Z,100
2022-09-15T00:35:57.190Z,100
2022-09-15T00:40:58.768Z,100
2022-09-15T00:46:00.363Z,100
2022-09-15T00:51:01.564Z,100
2022-09-15T00:56:03.511Z,100
2022-09-15T01:01:05.418Z,100
2022-09-15T01:06:07.350Z,100
2022-09-15T01:11:08.933Z,100
2022-09-15T01:16:10.191Z,100
2022-09-15T01:21:12.202Z,100
2022-09-15T01:26:13.622Z,100
2022-09-15T01:31:15.131Z,100
2022-09-15T01:36:16.655Z,100
2022-09-15T01:41:18.300Z,100
2022-09-15T01:46:20.308Z,100
2022-09-15T01:51:21.558Z,100
2022-09-15T01:56:23.659Z,100
2022-09-15T02:01:25.869Z,100
2022-09-15T02:06:27.673Z,100
2022-09-15T02:11:29.778Z,100
2022-09-15T02:16:31.511Z,100
2022-09-15T02:21:33.597Z,100
2022-09-15T02:26:35.479Z,100
2022-09-15T02:31:37.222Z,100
2022-09-15T02:36:38.973Z,100
2022-09-15T02:41:40.563Z,100
2022-09-15T02:46:41.925Z,100
2022-09-15T02:51:43.824Z,100
2022-09-15T02:56:45.490Z,100
2022-09-15T03:01:47.670Z,100
2022-09-15T03:06:49.502Z,100
2022-09-15T03:11:50.973Z,100
2022-09-15T03:16:52.953Z,100
2022-09-15T03:21:54.332Z,100
2022-09-15T03:26:56.240Z,100
2022-09-15T03:31:58.302Z,100
2022-09-15T03:37:00.156Z,100
2022-09-15T03:42:01.776Z,100
2022-09-15T03:47:03.062Z,100
2022-09-15T03:52:04.392Z,100
2022-09-15T03:57:06.531Z,100
2022-09-15T04:02:08.004Z,100
2022-09-15T04:07:09.484Z,100
2022-09-15T04:12:10.904Z,100
2022-09-15T04:17:12.859Z,100
2022-09-15T04:22:17.629Z,100
2022-09-15T04:27:16.112Z,100
2022-09-15T04:32:17.719Z,100
2022-09-15T04:37:19.377Z,100
2022-09-15T04:42:21.450Z,100
2022-09-15T04:47:22.769Z,100
2022-09-15T04:52:24.665Z,100
2022-09-15T04:57:26.657Z,100
2022-09-15T05:02:28.521Z,100
2022-09-15T05:07:30.583Z,100
2022-09-15T05:12:32.687Z,100
2022-09-15T05:17:34.497Z,100
2022-09-15T05:22:39.586Z,99
2022-09-15T05:27:37.721Z,98
2022-09-15T05:32:39.468Z,97
2022-09-15T05:37:48.933Z,97
2022-09-15T05:42:42.335Z,97
2022-09-15T05:47:43.908Z,97
2022-09-15T05:52:45.177Z,96
2022-09-15T05:57:46.783Z,95
2022-09-15T06:02:48.882Z,96
2022-09-15T06:07:50.059Z,95
2022-09-15T06:12:52.171Z,96
2022-09-15T06:17:53.969Z,95
2022-09-15T06:22:55.782Z,94
2022-09-15T06:27:57.045Z,94
2022-09-15T06:32:58.614Z,93
2022-09-15T06:38:00.292Z,95
2022-09-15T06:43:01.882Z,95
2022-09-15T06:48:23.259Z,95
2022-09-15T06:53:05.448Z,93
2022-09-15T06:58:06.870Z,94
2022-09-15T07:03:08.953Z,94
2022-09-15T07:08:10.486Z,94
2022-09-15T07:13:11.821Z,94
2022-09-15T07:18:13.418Z,95
2022-09-15T07:23:15.234Z,95
2022-09-15T07:28:16.593Z,95
2022-09-15T07:33:17.856Z,95
2022-09-15T07:38:19.860Z,95
2022-09-15T07:43:21.268Z,94
2022-09-15T07:48:26.431Z,95
2022-09-15T07:53:25.496Z,94
2022-09-15T07:58:27.099Z,92
2022-09-15T08:03:28.597Z,96
2022-09-15T08:08:29.874Z,92
2022-09-15T08:13:31.122Z,89
2022-09-15T08:18:32.448Z,90
2022-09-15T08:23:34.062Z,90
2022-09-15T08:28:35.356Z,85
2022-09-15T08:33:38.939Z,85
2022-09-15T08:38:38.797Z,81
2022-09-15T08:43:40.847Z,82
2022-09-15T08:48:42.714Z,84
2022-09-15T08:53:44.960Z,86
2022-09-15T08:58:46.297Z,84
2022-09-15T09:03:47.989Z,85
2022-09-15T09:08:49.814Z,84
2022-09-15T09:13:51.961Z,84
2022-09-15T09:18:53.549Z,83
2022-09-15T09:23:55.211Z,83
2022-09-15T09:28:57.214Z,82
2022-09-15T09:33:58.804Z,82
2022-09-15T09:39:00.651Z,81
2022-09-15T09:44:02.806Z,77
2022-09-15T09:49:04.740Z,78
2022-09-15T09:54:06.260Z,75
2022-09-15T09:59:07.623Z,74
2022-09-15T10:04:09.377Z,74
2022-09-15T10:09:10.766Z,70
2022-09-15T10:14:12.783Z,74
2022-09-15T10:19:14.590Z,74
2022-09-15T10:24:18.147Z,72
2022-09-15T10:29:18.047Z,75
2022-09-15T10:34:20.185Z,73
2022-09-15T10:39:21.694Z,74
2022-09-15T10:44:23.223Z,72
2022-09-15T10:49:25.324Z,72
2022-09-15T10:54:27.221Z,72
2022-09-15T10:59:29.334Z,71
2022-09-15T11:04:30.646Z,70
2022-09-15T11:09:31.936Z,71
2022-09-15T11:09:38.251Z,71
2022-09-15T11:14:40.146Z,71
2022-09-15T11:19:41.503Z,70
2022-09-15T11:24:42.694Z,70
2022-09-15T11:29:44.785Z,71
2022-09-15T11:34:46.562Z,71
2022-09-15T11:39:47.794Z,70
2022-09-15T11:44:49.459Z,72
2022-09-15T11:49:51.280Z,71
2022-09-15T11:54:52.899Z,69
2022-09-15T11:59:54.659Z,72
2022-09-15T12:04:55.888Z,71
2022-09-15T12:09:57.312Z,72
2022-09-15T12:14:58.706Z,71
2022-09-15T12:20:00.009Z,72
2022-09-15T12:25:02.126Z,72
2022-09-15T12:30:03.366Z,73
2022-09-15T12:35:05.312Z,72
2022-09-15T12:40:07.109Z,73
2022-09-15T12:45:08.625Z,75
2022-09-15T12:50:10.067Z,75
2022-09-15T12:55:11.641Z,81
2022-09-15T13:00:13.670Z,84
2022-09-15T13:05:15.644Z,84
2022-09-15T13:10:16.833Z,85
2022-09-15T13:15:18.803Z,78
2022-09-15T13:20:20.901Z,80
2022-09-15T13:25:22.584Z,76
2022-09-15T13:30:24.221Z,79
2022-09-15T13:35:26.642Z,76
2022-09-15T13:40:27.984Z,76
2022-09-15T13:45:29.210Z,76
2022-09-15T13:50:30.812Z,76
2022-09-15T13:55:32.478Z,76
2022-09-15T14:00:34.317Z,76
2022-09-15T14:05:35.644Z,76
2022-09-15T14:10:36.897Z,74
2022-09-15T14:15:38.626Z,76
2022-09-15T14:20:39.982Z,77
2022-09-15T14:25:41.667Z,80
2022-09-15T14:30:43.443Z,94
2022-09-15T14:35:45.040Z,100
2022-09-15T14:40:46.977Z,100
2022-09-15T14:45:53.585Z,100
2022-09-15T14:50:49.869Z,100
2022-09-15T14:55:51.346Z,100
2022-09-15T15:00:53.470Z,100
2022-09-15T15:05:58.144Z,100
2022-09-15T15:10:56.526Z,100
2022-09-15T15:15:58.334Z,100
2022-09-15T15:21:00.449Z,100
2022-09-15T15:26:02.446Z,100
2022-09-15T15:31:04.456Z,100
2022-09-15T15:36:06.602Z,100
2022-09-15T15:41:17.430Z,100
2022-09-15T15:46:10.460Z,100
2022-09-15T15:51:12.082Z,100
2022-09-15T15:56:13.519Z,100
2022-09-15T16:01:15.129Z,100
2022-09-15T16:06:16.489Z,100
2022-09-15T16:11:18.188Z,100
2022-09-15T16:16:19.762Z,100
2022-09-15T16:21:21.637Z,100
2022-09-15T16:26:23.185Z,100
2022-09-15T16:31:25.117Z,100
2022-09-15T16:36:26.631Z,100
2022-09-15T16:41:28.105Z,100
2022-09-15T16:46:30.181Z,100
2022-09-15T16:51:32.031Z,100
2022-09-15T16:56:33.854Z,100
2022-09-15T17:01:35.365Z,100
2022-09-15T17:06:37.208Z,100
2022-09-15T17:11:38.764Z,100
2022-09-15T17:16:40.087Z,100
2022-09-15T17:21:41.566Z,100
2022-09-15T17:26:43.587Z,100
2022-09-15T17:31:45.480Z,100
2022-09-15T17:36:47.058Z,100
2022-09-15T17:41:48.495Z,100
2022-09-15T17:46:49.854Z,100
2022-09-15T17:51:51.830Z,100
2022-09-15T17:56:53.753Z,100
2022-09-15T18:01:55.176Z,100
2022-09-15T18:06:56.992Z,100
2022-09-15T18:11:58.378Z,100
2022-09-15T18:17:00.432Z,100
2022-09-15T18:22:02.370Z,100
2022-09-15T18:27:04.534Z,100
2022-09-15T18:32:05.723Z,100
2022-09-15T18:37:07.096Z,100
2022-09-15T18:42:08.545Z,100
2022-09-15T18:47:10.295Z,100
2022-09-15T18:52:12.186Z,100
2022-09-15T18:57:14.224Z,100
2022-09-15T19:02:16.057Z,100
2022-09-15T19:07:17.912Z,100
2022-09-15T19:17:21.826Z,100
2022-09-15T19:22:23.149Z,100
2022-09-15T19:27:29.763Z,100
2022-09-15T19:32:26.540Z,100
2022-09-15T19:37:28.424Z,100
2022-09-15T19:42:30.134Z,100
2022-09-15T19:47:31.544Z,100
2022-09-15T19:52:32.993Z,100
2022-09-15T19:57:34.628Z,100
2022-09-15T20:02:35.958Z,100
2022-09-15T20:07:37.546Z,100
2022-09-15T20:12:39.524Z,100
2022-09-15T20:17:46.216Z,100
2022-09-15T20:22:42.874Z,100
2022-09-15T20:27:44.669Z,100
2022-09-15T20:32:46.469Z,100
2022-09-15T20:37:48.244Z,100
2022-09-15T20:42:50.228Z,100
2022-09-15T20:47:51.876Z,100
2022-09-15T20:52:53.635Z,100
2022-09-15T20:57:55.454Z,100
2022-09-15T21:02:56.804Z,100
2022-09-15T21:07:58.262Z,100
2022-09-15T21:13:00.359Z,100
2022-09-15T21:18:01.674Z,100
2022-09-15T21:23:03.180Z,100
2022-09-15T21:28:04.884Z,100
2022-09-15T21:33:06.627Z,100
2022-09-15T21:38:08.735Z,100
2022-09-15T21:43:10.842Z,100
2022-09-15T21:48:12.059Z,100
2022-09-15T21:53:14.097Z,100
2022-09-15T21:58:15.933Z,100
2022-09-15T22:13:21.030Z,100
2022-09-15T22:18:22.243Z,100
2022-09-15T22:23:24.007Z,100
2022-09-15T22:28:25.700Z,100
2022-09-15T22:33:27.458Z,100
2022-09-15T22:38:29.117Z,100
2022-09-15T22:43:30.620Z,100
2022-09-15T22:48:32.532Z,100
2022-09-15T22:53:34.497Z,100
2022-09-15T22:58:36.671Z,100
2022-09-15T23:03:38.618Z,100
2022-09-15T23:08:40.755Z,100
2022-09-15T23:13:42.576Z,100
2022-09-15T23:18:43.994Z,100
2022-09-15T23:23:46.003Z,100
2022-09-15T23:28:47.464Z,100
2022-09-15T23:33:49.034Z,100
2022-09-15T23:38:50.356Z,100
2022-09-15T23:43:51.921Z,100
2022-09-15T23:48:53.860Z,100
2022-09-15T23:53:55.750Z,100
2022-09-15T23:58:57.399Z,100
